Time;durP1;ratioP1;P1;durP2;ratioP2;P2;SDS_P1;SDS_P2;PMS_P1;PMS_P2;Temp;Humidity;BMP_temperature;BMP_pressure;BME280_temperature;BME280_humidity;BME280_pressure;Samples;Min_cycle;Max_cycle;Signal;HPM_P1;HPM_P2
2023/07/31 00:00:24;;;;;;;3.97;2.13;;;;;;;18.52;100.00;96495.66;4951449;28;105689;-68
2023/07/31 00:02:51;;;;;;;3.67;2.07;;;;;;;18.52;100.00;96494.88;4952100;28;102087;-68
2023/07/31 00:05:18;;;;;;;1.90;1.80;;;;;;;18.53;100.00;96496.47;4969793;28;102664;-68
2023/07/31 00:07:45;;;;;;;2.03;1.80;;;;;;;18.48;100.00;96499.25;4951852;28;105559;-68
2023/07/31 00:10:13;;;;;;;2.10;1.90;;;;;;;18.43;100.00;96496.66;4955569;28;102097;-68
2023/07/31 00:12:46;;;;;;;3.93;2.00;;;;;;;18.42;100.00;96503.94;4958270;28;104869;-68
2023/07/31 00:15:16;;;;;;;1.97;1.77;;;;;;;18.47;100.00;96503.06;4955598;28;101938;-68
2023/07/31 00:17:45;;;;;;;2.13;1.60;;;;;;;18.43;100.00;96505.53;4973156;28;102581;-68
2023/07/31 00:20:15;;;;;;;3.40;1.90;;;;;;;18.41;100.00;96493.44;4954764;28;104097;-68
2023/07/31 00:22:44;;;;;;;3.27;1.97;;;;;;;18.41;100.00;96493.44;4955488;28;102176;-64
2023/07/31 00:25:13;;;;;;;2.10;1.67;;;;;;;18.43;100.00;96499.34;4955212;28;105305;-63
2023/07/31 00:27:44;;;;;;;3.77;2.10;;;;;;;18.38;100.00;96486.78;4954759;28;105234;-63
2023/07/31 00:30:16;;;;;;;3.77;1.97;;;;;;;18.38;100.00;96492.19;4955157;28;102294;-65
2023/07/31 00:32:45;;;;;;;2.40;1.60;;;;;;;18.39;100.00;96484.88;4955078;28;105780;-66
2023/07/31 00:35:12;;;;;;;3.67;1.97;;;;;;;18.30;100.00;96486.63;4957654;28;101925;-66
2023/07/31 00:37:41;;;;;;;2.03;1.80;;;;;;;18.33;100.00;96483.38;4955322;28;105331;-66
2023/07/31 00:40:13;;;;;;;1.80;1.70;;;;;;;18.37;100.00;96479.00;4954491;28;105231;-66
2023/07/31 00:42:43;;;;;;;2.80;1.90;;;;;;;18.35;100.00;96483.88;4955235;28;101990;-65
2023/07/31 00:45:10;;;;;;;3.30;2.10;;;;;;;18.33;100.00;96484.19;4954867;28;103690;-65
2023/07/31 00:47:40;;;;;;;2.73;1.93;;;;;;;18.30;100.00;96471.28;4954382;28;105554;-65
2023/07/31 00:50:08;;;;;;;3.17;2.13;;;;;;;18.32;100.00;96479.88;4954991;28;102050;-65
2023/07/31 00:52:39;;;;;;;3.73;2.27;;;;;;;18.32;100.00;96481.78;4954831;28;105629;-65
2023/07/31 00:55:09;;;;;;;2.17;1.70;;;;;;;18.27;100.00;96473.75;4957616;28;105196;-65
2023/07/31 00:57:42;;;;;;;2.00;1.73;;;;;;;18.13;100.00;96476.41;4972361;28;102435;-65
2023/07/31 01:00:10;;;;;;;2.43;1.87;;;;;;;18.07;100.00;96468.72;4954297;28;105153;-65
2023/07/31 01:02:40;;;;;;;3.00;2.17;;;;;;;18.03;100.00;96463.13;4954661;28;101873;-65
2023/07/31 01:05:13;;;;;;;3.23;2.00;;;;;;;17.97;100.00;96466.19;4954787;28;105213;-66
2023/07/31 01:07:53;;;;;;;2.27;1.90;;;;;;;17.79;100.00;96470.53;4954071;28;105832;-65
2023/07/31 01:10:27;;;;;;;2.20;1.80;;;;;;;17.83;100.00;96458.09;4954774;28;102006;-66
2023/07/31 01:12:57;;;;;;;2.40;2.00;;;;;;;17.86;100.00;96454.81;4972302;28;102461;-66
2023/07/31 01:15:24;;;;;;;2.40;1.60;;;;;;;17.82;100.00;96455.72;4972024;28;103050;-66
2023/07/31 01:17:51;;;;;;;1.90;1.70;;;;;;;17.70;100.00;96458.03;4975488;28;101882;-66
2023/07/31 01:20:23;;;;;;;2.40;1.80;;;;;;;17.61;100.00;96451.75;5248365;22;103502;-64
2023/07/31 01:23:23;;;;;;;2.20;2.00;;;;;;;17.63;100.00;96454.91;4961970;28;101840;-63
2023/07/31 01:26:06;;;;;;;2.60;2.07;;;;;;;17.46;100.00;96450.09;4970778;28;105650;-63
2023/07/31 01:28:41;;;;;;;1.93;1.83;;;;;;;17.43;100.00;96436.44;4970176;28;105418;-63
2023/07/31 01:31:13;;;;;;;1.70;1.60;;;;;;;17.43;100.00;96434.53;4970724;28;101907;-63
2023/07/31 01:33:40;;;;;;;1.70;1.60;;;;;;;17.38;100.00;96436.47;4970515;28;105254;-63
2023/07/31 01:36:09;;;;;;;2.00;1.90;;;;;;;17.37;100.00;96429.47;4969809;28;105846;-63
2023/07/31 01:38:36;;;;;;;2.13;1.90;;;;;;;17.31;100.00;96427.97;4971949;28;101858;-63
2023/07/31 01:41:04;;;;;;;2.20;2.00;;;;;;;17.26;100.00;96426.16;4973185;28;105219;-64
2023/07/31 01:43:31;;;;;;;2.23;1.77;;;;;;;17.20;100.00;96423.81;4970520;28;101926;-64
2023/07/31 01:45:57;;;;;;;3.00;1.80;;;;;;;16.89;100.00;96433.41;4971738;28;102347;-64
2023/07/31 01:48:25;;;;;;;2.47;1.90;;;;;;;17.02;100.00;96416.56;4971135;28;103022;-64
2023/07/31 01:50:52;;;;;;;1.90;1.80;;;;;;;16.97;100.00;96422.81;4970086;28;101933;-64
2023/07/31 01:53:19;;;;;;;3.43;1.90;;;;;;;16.97;100.00;96424.69;4969926;28;105209;-63
2023/07/31 01:55:46;;;;;;;3.33;1.93;;;;;;;16.77;100.00;96419.56;4969596;28;105571;-63
2023/07/31 01:58:14;;;;;;;3.60;2.00;;;;;;;16.69;100.00;96417.53;4970299;28;101879;-63
2023/07/31 02:00:40;;;;;;;4.93;2.13;;;;;;;16.82;100.00;96422.19;4970048;28;105617;-63
2023/07/31 02:03:07;;;;;;;2.10;1.90;;;;;;;16.74;100.00;96420.16;4972831;28;105371;-63
2023/07/31 02:05:34;;;;;;;2.60;2.00;;;;;;;16.66;100.00;96418.09;4971392;28;102797;-63
2023/07/31 02:08:01;;;;;;;2.20;1.63;;;;;;;16.52;100.00;96412.63;4969482;28;105866;-62
2023/07/31 02:10:29;;;;;;;1.80;1.70;;;;;;;16.46;100.00;96413.00;4969955;28;102115;-63
2023/07/31 02:12:57;;;;;;;2.47;2.00;;;;;;;16.40;100.00;96416.81;4969937;28;105820;-63
2023/07/31 02:15:25;;;;;;;2.43;2.20;;;;;;;16.54;100.00;96413.16;4969230;28;105410;-63
2023/07/31 02:17:52;;;;;;;2.30;2.10;;;;;;;16.61;100.00;96404.75;4969753;28;101999;-64
2023/07/31 02:20:19;;;;;;;3.53;2.10;;;;;;;16.36;100.00;96405.03;4969312;28;105426;-64
2023/07/31 02:22:46;;;;;;;2.47;2.27;;;;;;;16.50;100.00;96403.25;4969083;28;105656;-64
2023/07/31 02:25:14;;;;;;;2.30;2.10;;;;;;;16.47;100.00;96403.84;4974513;28;101872;-63
2023/07/31 02:27:41;;;;;;;3.93;2.40;;;;;;;16.54;100.00;96412.34;4970503;28;102541;-62
2023/07/31 02:30:08;;;;;;;3.37;2.37;;;;;;;16.60;100.00;96416.56;4971154;28;102093;-62
2023/07/31 02:32:37;;;;;;;3.43;2.23;;;;;;;16.61;100.00;96418.16;4969714;28;102729;-62
2023/07/31 02:35:05;;;;;;;2.27;1.93;;;;;;;16.60;100.00;96412.00;4969117;28;104979;-62
2023/07/31 02:37:31;;;;;;;2.93;2.20;;;;;;;16.67;100.00;96414.34;4969543;28;101846;-63
2023/07/31 02:39:58;;;;;;;2.80;2.20;;;;;;;16.68;100.00;96414.03;4969517;28;105390;-63
2023/07/31 02:42:28;;;;;;;2.30;2.03;;;;;;;16.69;100.00;96410.28;4970132;28;102630;-63
2023/07/31 02:44:55;;;;;;;2.17;1.97;;;;;;;16.67;100.00;96401.72;4972884;28;101899;-63
2023/07/31 02:47:22;;;;;;;2.60;2.27;;;;;;;16.58;100.00;96399.97;4968569;28;105646;-63
2023/07/31 02:49:51;;;;;;;2.07;1.87;;;;;;;16.49;100.00;96407.03;4969456;28;101917;-66
2023/07/31 02:52:18;;;;;;;2.90;2.13;;;;;;;16.43;100.00;96406.31;4969391;28;105201;-66
2023/07/31 02:54:45;;;;;;;3.77;1.97;;;;;;;16.39;100.00;96396.41;4968750;28;105369;-66
2023/07/31 02:57:12;;;;;;;2.33;2.00;;;;;;;16.35;100.00;96395.38;4969566;28;102216;-66
2023/07/31 02:59:39;;;;;;;2.93;2.00;;;;;;;16.24;100.00;96396.59;4969352;28;105582;-66
2023/07/31 03:02:06;;;;;;;3.07;2.47;;;;;;;16.32;100.00;96396.75;4968609;28;104636;-66
2023/07/31 03:04:33;;;;;;;6.47;2.50;;;;;;;16.34;100.00;96402.63;4970558;28;101946;-65
2023/07/31 03:07:01;;;;;;;4.37;2.40;;;;;;;16.34;100.00;96401.81;4972041;28;105227;-65
2023/07/31 03:09:28;;;;;;;3.77;2.50;;;;;;;16.32;100.00;96401.31;4969253;28;102121;-66
2023/07/31 03:11:55;;;;;;;2.67;2.37;;;;;;;16.37;100.00;96393.19;4969043;28;105589;-66
2023/07/31 03:14:22;;;;;;;2.70;2.20;;;;;;;16.33;100.00;96386.78;4968304;28;105737;-66
2023/07/31 03:16:49;;;;;;;2.50;2.30;;;;;;;16.32;100.00;96393.25;4969043;28;101949;-65
2023/07/31 03:19:16;;;;;;;3.20;2.70;;;;;;;16.36;100.00;96395.06;4970525;28;102403;-65
2023/07/31 03:21:43;;;;;;;3.73;2.53;;;;;;;16.35;100.00;96381.97;4968074;28;105915;-65
2023/07/31 03:24:12;;;;;;;5.43;2.50;;;;;;;16.22;100.00;96379.94;4969056;28;101878;-65
2023/07/31 03:26:41;;;;;;;4.33;2.50;;;;;;;16.11;100.00;96378.47;4970427;28;102396;-65
2023/07/31 03:29:08;;;;;;;3.20;2.30;;;;;;;16.02;100.00;96369.47;4971769;28;105582;-65
2023/07/31 03:31:35;;;;;;;3.67;2.30;;;;;;;15.90;100.00;96367.16;4968690;28;103753;-65
2023/07/31 03:34:02;;;;;;;2.50;2.30;;;;;;;15.83;100.00;96381.97;4968091;28;105748;-65
2023/07/31 03:36:30;;;;;;;3.83;2.20;;;;;;;15.84;100.00;96378.22;4969984;28;101859;-65
2023/07/31 03:38:57;;;;;;;2.73;2.20;;;;;;;15.83;100.00;96382.78;4968838;28;105353;-65
2023/07/31 03:41:26;;;;;;;2.27;2.07;;;;;;;15.86;100.00;96381.41;4969453;28;102607;-65
2023/07/31 03:43:55;;;;;;;3.23;1.80;;;;;;;15.87;100.00;96388.38;4969553;28;101911;-66
2023/07/31 03:46:23;;;;;;;3.80;2.10;;;;;;;15.93;100.00;96381.88;4970088;28;102636;-66
2023/07/31 03:48:50;;;;;;;2.40;2.20;;;;;;;15.92;100.00;96382.97;4968076;28;105532;-65
2023/07/31 03:51:17;;;;;;;2.30;1.70;;;;;;;15.82;100.00;96386.56;4971975;28;101936;-65
2023/07/31 03:53:44;;;;;;;2.80;1.90;;;;;;;15.87;100.00;96391.84;4969351;28;103214;-65
2023/07/31 03:56:11;;;;;;;2.53;1.83;;;;;;;15.87;100.00;96393.75;4970087;28;101831;-66
2023/07/31 03:58:39;;;;;;;2.63;2.00;;;;;;;15.87;100.00;96394.53;4969942;28;102430;-65
2023/07/31 04:01:07;;;;;;;3.23;2.00;;;;;;;15.92;100.00;96396.38;4969109;28;102624;-66
2023/07/31 04:03:34;;;;;;;2.20;1.87;;;;;;;15.96;100.00;96397.41;4968623;28;102245;-66
2023/07/31 04:06:01;;;;;;;3.00;2.00;;;;;;;16.00;100.00;96388.50;4969919;28;102406;-65
2023/07/31 04:08:28;;;;;;;2.47;2.17;;;;;;;16.04;100.00;96388.75;4967764;28;105711;-66
2023/07/31 04:10:55;;;;;;;3.23;1.90;;;;;;;16.10;100.00;96387.59;4968425;28;102052;-65
2023/07/31 04:13:23;;;;;;;2.83;1.80;;;;;;;16.13;100.00;96382.47;4972618;28;102524;-65
2023/07/31 04:15:51;;;;;;;4.27;2.03;;;;;;;16.19;100.00;96388.59;4969531;28;101860;-65
2023/07/31 04:18:18;;;;;;;2.30;2.10;;;;;;;16.26;100.00;96387.16;4968235;28;105419;-65
2023/07/31 04:20:45;;;;;;;5.30;2.10;;;;;;;16.32;100.00;96380.66;4968471;28;102663;-66
2023/07/31 04:23:12;;;;;;;2.47;2.27;;;;;;;16.33;100.00;96392.97;4969807;28;101879;-66
2023/07/31 04:25:38;;;;;;;2.00;1.80;;;;;;;16.37;100.00;96382.47;4969632;28;101711;-66
2023/07/31 04:28:05;;;;;;;6.97;2.30;;;;;;;16.45;100.00;96381.88;4967697;28;105809;-66
2023/07/31 04:30:32;;;;;;;5.70;2.30;;;;;;;16.45;100.00;96374.59;4969573;28;101970;-66
2023/07/31 04:33:00;;;;;;;4.33;2.20;;;;;;;16.50;100.00;96381.78;4969699;28;102502;-66
2023/07/31 04:35:28;;;;;;;6.07;2.10;;;;;;;16.43;100.00;96373.28;4972174;28;102611;-66
2023/07/31 04:37:55;;;;;;;3.13;1.93;;;;;;;16.30;100.00;96376.66;4968062;28;104917;-65
2023/07/31 04:40:22;;;;;;;4.20;2.23;;;;;;;16.41;100.00;96367.44;4967585;28;105398;-65
2023/07/31 04:42:48;;;;;;;4.33;1.83;;;;;;;16.44;100.00;96370.31;4967916;28;102059;-65
2023/07/31 04:45:15;;;;;;;2.10;1.90;;;;;;;16.32;100.00;96364.53;4967964;28;105709;-65
2023/07/31 04:47:42;;;;;;;3.80;2.03;;;;;;;16.36;100.00;96362.09;4967370;28;105718;-65
2023/07/31 04:50:11;;;;;;;3.00;2.00;;;;;;;16.42;100.00;96363.66;4968117;28;101866;-65
2023/07/31 04:52:38;;;;;;;3.10;2.00;;;;;;;16.37;100.00;96371.72;4967942;28;105534;-65
2023/07/31 04:55:05;;;;;;;3.40;2.17;;;;;;;16.23;100.00;96373.50;4971294;28;105887;-65
2023/07/31 04:57:32;;;;;;;2.87;1.93;;;;;;;16.29;100.00;96375.84;4972448;28;102416;-65
2023/07/31 04:59:58;;;;;;;2.13;1.80;;;;;;;16.22;100.00;96370.03;4970572;28;105354;-66
2023/07/31 05:02:25;;;;;;;3.20;1.70;;;;;;;16.30;100.00;96368.59;4971226;28;102037;-66
2023/07/31 05:04:52;;;;;;;3.37;2.10;;;;;;;16.22;100.00;96367.34;4971043;28;105330;-66
2023/07/31 05:07:20;;;;;;;2.80;2.00;;;;;;;16.14;100.00;96361.81;4970464;28;105739;-66
2023/07/31 05:09:47;;;;;;;3.77;2.13;;;;;;;16.16;100.00;96362.31;4971178;28;101994;-66
2023/07/31 05:12:14;;;;;;;2.70;1.90;;;;;;;16.18;100.00;96358.25;4970924;28;104058;-66
2023/07/31 05:14:41;;;;;;;1.83;1.60;;;;;;;16.04;100.00;96361.91;4970105;28;105501;-66
2023/07/31 05:17:07;;;;;;;1.77;1.67;;;;;;;16.31;100.00;96364.81;4974506;28;102192;-66
2023/07/31 05:19:34;;;;;;;3.77;2.20;;;;;;;16.56;100.00;96364.56;4970254;28;105423;-66
2023/07/31 05:22:01;;;;;;;3.47;1.87;;;;;;;16.79;100.00;96359.13;4971935;28;102104;-66
2023/07/31 05:24:29;;;;;;;2.57;1.77;;;;;;;16.95;100.00;96351.66;4970715;28;105133;-66
2023/07/31 05:26:56;;;;;;;5.87;1.83;;;;;;;16.86;100.00;96359.56;4970068;28;104314;-66
2023/07/31 05:29:23;;;;;;;2.80;1.80;;;;;;;17.10;100.00;96364.84;4970693;28;101999;-65
2023/07/31 05:31:50;;;;;;;3.20;1.90;;;;;;;17.44;100.00;96360.06;4970816;28;104954;-66
2023/07/31 05:34:16;;;;;;;2.03;1.83;;;;;;;17.54;100.00;96360.69;4969910;28;105104;-65
2023/07/31 05:36:43;;;;;;;2.47;2.10;;;;;;;17.65;100.00;96366.69;4970594;28;101843;-66
2023/07/31 05:39:10;;;;;;;3.03;2.10;;;;;;;17.78;100.00;96369.41;4973155;28;105521;-66
2023/07/31 05:41:38;;;;;;;3.93;2.10;;;;;;;17.91;100.00;96365.94;4970215;28;101926;-66
2023/07/31 05:44:05;;;;;;;3.20;1.70;;;;;;;18.23;100.00;96365.06;4970534;28;104951;-65
2023/07/31 05:46:32;;;;;;;3.77;1.63;;;;;;;18.46;100.00;96361.41;4969607;28;105247;-66
2023/07/31 05:49:00;;;;;;;3.60;1.80;;;;;;;18.37;100.00;96372.06;4970374;28;101900;-66
2023/07/31 05:51:27;;;;;;;2.23;1.70;;;;;;;18.61;100.00;96366.47;4970285;28;105888;-65
2023/07/31 05:53:55;;;;;;;3.87;1.63;;;;;;;18.78;100.00;96361.28;4969680;28;105401;-66
2023/07/31 05:56:22;;;;;;;1.60;1.50;;;;;;;18.67;100.00;96365.28;4971513;28;101831;-65
2023/07/31 05:58:50;;;;;;;3.67;1.60;;;;;;;18.55;100.00;96360.41;4971653;28;102354;-66
2023/07/31 06:01:17;;;;;;;2.87;1.60;;;;;;;18.47;100.00;96350.34;4974228;28;102575;-66
2023/07/31 06:03:45;;;;;;;3.43;1.73;;;;;;;18.49;100.00;96347.34;4971535;28;102502;-66
2023/07/31 06:06:13;;;;;;;2.03;1.80;;;;;;;18.69;100.00;96341.53;4970578;28;102780;-66
2023/07/31 06:08:40;;;;;;;3.40;1.47;;;;;;;18.93;100.00;96348.28;4970041;28;102055;-66
2023/07/31 06:11:09;;;;;;;2.57;1.57;;;;;;;19.06;100.00;96349.31;4971319;28;102362;-66
2023/07/31 06:13:36;;;;;;;1.73;1.63;;;;;;;19.18;100.00;96346.91;4969318;28;105898;-66
2023/07/31 06:16:06;;;;;;;2.73;1.80;;;;;;;18.89;100.00;96355.38;4971190;28;102189;-66
2023/07/31 06:18:33;;;;;;;2.03;1.83;;;;;;;18.91;100.00;96352.38;4969838;28;105631;-66
2023/07/31 06:21:00;;;;;;;1.73;1.50;;;;;;;19.12;100.00;96350.81;4970137;28;102727;-66
2023/07/31 06:23:27;;;;;;;2.73;1.80;;;;;;;19.04;100.00;96343.44;4974706;28;101724;-66
2023/07/31 06:25:53;;;;;;;4.10;2.03;;;;;;;19.18;100.00;96344.22;4970429;28;103088;-66
2023/07/31 06:28:20;;;;;;;2.60;1.70;;;;;;;19.22;100.00;96337.91;4969596;28;101865;-66
2023/07/31 06:30:47;;;;;;;2.47;1.47;;;;;;;19.60;100.00;96349.13;4969822;28;105717;-66
2023/07/31 06:33:16;;;;;;;2.47;1.90;;;;;;;19.55;100.00;96339.25;4968907;28;105719;-66
2023/07/31 06:35:43;;;;;;;2.30;1.60;;;;;;;19.61;100.00;96345.34;4969423;28;101997;-66
2023/07/31 06:38:09;;;;;;;2.40;1.63;;;;;;;19.54;100.00;96345.75;4970994;28;102554;-66
2023/07/31 06:40:36;;;;;;;2.47;1.70;;;;;;;19.46;100.00;96343.00;4968917;28;105725;-66
2023/07/31 06:43:07;;;;;;;2.87;1.90;;;;;;;19.22;100.00;96347.88;4970978;28;101827;-66
2023/07/31 06:45:34;;;;;;;2.57;1.83;;;;;;;19.49;100.00;96345.09;4973659;28;101810;-66
2023/07/31 06:48:02;;;;;;;2.27;1.80;;;;;;;19.35;100.00;96342.44;4970832;28;101839;-67
2023/07/31 06:50:30;;;;;;;2.33;1.90;;;;;;;19.37;100.00;96340.25;4969585;28;105755;-67
2023/07/31 06:52:57;;;;;;;3.03;1.80;;;;;;;19.51;100.00;96353.69;4970050;28;103157;-67
2023/07/31 06:55:25;;;;;;;4.00;1.90;;;;;;;19.38;100.00;96354.53;4969002;28;101915;-67
2023/07/31 06:57:54;;;;;;;3.07;2.00;;;;;;;19.38;100.00;96359.91;4969398;28;105610;-66
2023/07/31 07:00:21;;;;;;;2.30;1.70;;;;;;;19.46;100.00;96362.66;4970231;28;102574;-67
2023/07/31 07:02:49;;;;;;;2.40;1.70;;;;;;;19.40;100.00;96361.19;4970702;28;101951;-67
2023/07/31 07:05:17;;;;;;;3.90;1.93;;;;;;;19.69;100.00;96368.88;4973509;28;103024;-67
2023/07/31 07:07:45;;;;;;;3.50;1.67;;;;;;;19.79;100.00;96358.59;4970578;28;101836;-67
2023/07/31 07:10:12;;;;;;;1.93;1.70;;;;;;;19.89;100.00;96358.34;4970467;28;102483;-67
2023/07/31 07:12:39;;;;;;;2.10;1.70;;;;;;;19.97;100.00;96354.09;4969756;28;102760;-67
2023/07/31 07:15:07;;;;;;;3.60;1.80;;;;;;;20.00;100.00;96353.50;4969112;28;101992;-67
2023/07/31 07:17:34;;;;;;;4.90;1.97;;;;;;;20.06;100.00;96352.25;4969672;28;102791;-67
2023/07/31 07:20:03;;;;;;;2.83;1.93;;;;;;;20.21;100.00;96349.19;4969619;28;102884;-67
2023/07/31 07:22:30;;;;;;;2.13;1.80;;;;;;;20.20;100.00;96350.25;4970520;28;101816;-67
2023/07/31 07:24:58;;;;;;;2.17;1.80;;;;;;;20.34;100.00;96340.97;4968857;28;105462;-67
2023/07/31 07:27:25;;;;;;;4.33;2.10;;;;;;;20.83;100.00;96334.41;4971870;28;103954;-67
2023/07/31 07:29:53;;;;;;;3.13;2.03;;;;;;;21.07;100.00;96337.47;4968796;28;105817;-67
2023/07/31 07:32:20;;;;;;;3.53;2.10;;;;;;;21.23;100.00;96346.69;4969717;28;102594;-67
2023/07/31 07:34:48;;;;;;;2.83;1.80;;;;;;;21.20;100.00;96339.22;4970142;28;102273;-67
2023/07/31 07:37:15;;;;;;;3.53;1.70;;;;;;;21.06;100.00;96330.47;4968763;28;105323;-67
2023/07/31 07:39:42;;;;;;;1.90;1.60;;;;;;;21.00;100.00;96331.75;4969618;28;102512;-67
2023/07/31 07:42:11;;;;;;;1.90;1.60;;;;;;;21.64;100.00;96338.88;4970133;28;101889;-67
2023/07/31 07:44:38;;;;;;;2.70;1.90;;;;;;;21.57;100.00;96327.75;4970149;28;102436;-67
2023/07/31 07:47:07;;;;;;;3.03;1.70;;;;;;;21.51;100.00;96331.72;4968071;28;105815;-67
2023/07/31 07:49:34;;;;;;;2.27;1.70;;;;;;;21.52;100.00;96330.63;4971968;28;101912;-67
2023/07/31 07:52:01;;;;;;;1.97;1.60;;;;;;;21.26;100.00;96336.03;4968027;28;105836;-67
2023/07/31 07:54:28;;;;;;;3.73;1.70;;;;;;;21.70;100.00;96332.19;4968462;28;102099;-67
2023/07/31 07:56:55;;;;;;;2.50;1.63;;;;;;;21.79;100.00;96338.41;4968582;28;104096;-67
2023/07/31 07:59:24;;;;;;;2.73;1.80;;;;;;;21.34;100.00;96323.63;4969289;28;102857;-67
2023/07/31 08:01:51;;;;;;;1.70;1.60;;;;;;;21.51;100.00;96327.09;4968488;28;102072;-67
2023/07/31 08:04:18;;;;;;;2.53;1.50;;;;;;;21.48;100.00;96316.13;4968588;28;103726;-69
2023/07/31 08:06:45;;;;;;;2.60;1.60;;;;;;;21.83;100.00;96314.97;4967927;28;105452;-71
2023/07/31 08:09:12;;;;;;;2.70;1.53;;;;;;;21.87;100.00;96315.91;4968356;28;101882;-66
2023/07/31 08:11:39;;;;;;;1.70;1.40;;;;;;;22.02;100.00;96309.97;4971236;28;105314;-64
2023/07/31 08:14:06;;;;;;;2.03;1.37;;;;;;;22.24;100.00;96312.44;4968434;28;102008;-67
2023/07/31 08:16:34;;;;;;;1.67;1.57;;;;;;;22.18;100.00;96314.50;4968354;28;106045;-65
2023/07/31 08:19:01;;;;;;;2.23;1.50;;;;;;;22.48;100.00;96318.06;4967742;28;105393;-64
2023/07/31 08:21:29;;;;;;;3.17;1.20;;;;;;;22.47;100.00;96313.78;4967546;28;102033;-69
2023/07/31 08:23:57;;;;;;;3.10;1.50;;;;;;;22.20;95.96;96311.47;4968170;28;105460;-65
2023/07/31 08:26:23;;;;;;;1.83;1.20;;;;;;;21.91;95.70;96306.03;4967539;28;105283;-65
2023/07/31 08:28:50;;;;;;;1.37;1.20;;;;;;;22.10;91.42;96295.59;4968597;28;101962;-64
2023/07/31 08:31:18;;;;;;;1.40;1.30;;;;;;;22.03;99.33;96298.81;4971649;28;105359;-65
2023/07/31 08:33:46;;;;;;;2.67;1.40;;;;;;;22.31;98.81;96289.13;4974477;28;104604;-64
2023/07/31 08:36:13;;;;;;;3.23;1.40;;;;;;;22.32;100.00;96287.19;4971212;28;105164;-65
2023/07/31 08:38:41;;;;;;;2.30;1.23;;;;;;;22.15;100.00;96290.00;4969342;28;104069;-63
2023/07/31 08:41:07;;;;;;;1.63;1.27;;;;;;;22.28;100.00;96278.16;4971225;28;101908;-63
2023/07/31 08:43:38;;;;;;;3.37;1.50;;;;;;;22.11;94.58;96289.03;4972603;28;103024;-63
2023/07/31 08:46:06;;;;;;;1.40;1.30;;;;;;;22.01;96.70;96278.59;4972073;28;102679;-63
2023/07/31 08:48:33;;;;;;;3.40;1.17;;;;;;;22.12;95.07;96274.41;4971167;28;102020;-64
2023/07/31 08:51:01;;;;;;;4.20;1.50;;;;;;;22.53;92.24;96274.50;4970899;28;105027;-63
2023/07/31 08:53:28;;;;;;;1.53;1.10;;;;;;;22.45;96.45;96280.78;4970378;28;105406;-64
2023/07/31 08:55:57;;;;;;;1.60;1.23;;;;;;;22.40;93.45;96272.81;4974499;28;101890;-64
2023/07/31 08:58:25;;;;;;;1.40;1.30;;;;;;;22.51;91.53;96272.13;4970330;28;105712;-64
2023/07/31 09:00:52;;;;;;;2.10;1.30;;;;;;;22.60;90.63;96272.06;4970755;28;101974;-64
2023/07/31 09:03:19;;;;;;;3.20;1.67;;;;;;;22.46;93.84;96275.03;4970568;28;105072;-64
2023/07/31 09:05:47;;;;;;;1.37;1.20;;;;;;;22.95;94.58;96282.34;4970169;28;105862;-64
2023/07/31 09:08:19;;;;;;;2.30;1.40;;;;;;;22.79;87.09;96278.66;4970111;28;102140;-64
2023/07/31 09:10:47;;;;;;;2.33;1.50;;;;;;;23.45;80.94;96271.41;4970644;28;104925;-64
2023/07/31 09:13:14;;;;;;;1.93;1.47;;;;;;;23.14;86.45;96273.72;4969933;28;106310;-62
2023/07/31 09:15:44;;;;;;;3.67;1.90;;;;;;;23.41;82.24;96263.16;4975153;28;101782;-62
2023/07/31 09:18:11;;;;;;;2.07;1.60;;;;;;;23.16;91.66;96252.50;4970300;28;105379;-62
2023/07/31 09:20:38;;;;;;;1.80;1.50;;;;;;;23.43;93.30;96260.09;4970442;28;101985;-62
2023/07/31 09:23:10;;;;;;;1.50;1.40;;;;;;;23.67;89.99;96257.44;4972274;28;102471;-62
2023/07/31 09:25:39;;;;;;;1.70;1.30;;;;;;;23.38;91.06;96255.66;4971441;28;103115;-62
2023/07/31 09:28:07;;;;;;;2.23;1.43;;;;;;;23.56;88.32;96253.56;4970690;28;101907;-62
2023/07/31 09:30:48;;;;;;;1.57;1.47;;;;;;;23.14;90.93;96252.84;4970729;28;105483;-62
2023/07/31 09:33:15;;;;;;;1.63;1.40;;;;;;;23.35;93.96;96258.25;4970172;28;106020;-64
2023/07/31 09:35:42;;;;;;;2.47;1.53;;;;;;;22.93;93.62;96270.22;4954488;28;102127;-64
2023/07/31 09:38:11;;;;;;;1.53;1.30;;;;;;;22.72;98.81;96258.63;4973331;28;104248;-64
2023/07/31 09:40:42;;;;;;;1.80;1.30;;;;;;;22.73;100.00;96260.97;4971583;28;102297;-64
2023/07/31 09:43:11;;;;;;;2.70;1.50;;;;;;;23.08;96.90;96247.94;4972027;28;102901;-64
2023/07/31 09:45:40;;;;;;;1.87;1.47;;;;;;;23.02;100.00;96252.78;4969895;28;104170;-64
2023/07/31 09:48:10;;;;;;;1.73;1.63;;;;;;;22.78;100.00;96257.28;4970294;28;102065;-64
2023/07/31 09:50:39;;;;;;;2.30;1.40;;;;;;;22.52;100.00;96246.63;4970318;28;105409;-64
2023/07/31 09:53:06;;;;;;;1.60;1.50;;;;;;;22.82;100.00;96241.94;4969819;28;105508;-64
2023/07/31 09:55:33;;;;;;;3.33;1.70;;;;;;;22.89;100.00;96244.91;4971786;28;102307;-64
2023/07/31 09:58:05;;;;;;;3.73;1.50;;;;;;;22.82;100.00;96239.22;4970398;28;104077;-64
2023/07/31 10:00:32;;;;;;;1.90;1.57;;;;;;;22.87;100.00;96233.59;4974489;28;103178;-64
2023/07/31 10:03:01;;;;;;;3.33;1.70;;;;;;;22.59;100.00;96244.19;4970063;28;105750;-65
2023/07/31 10:05:34;;;;;;;1.80;1.50;;;;;;;23.09;100.00;96225.91;4969391;28;104537;-64
2023/07/31 10:08:01;;;;;;;2.83;1.40;;;;;;;23.31;100.00;96228.28;4970133;28;102027;-64
2023/07/31 10:10:29;;;;;;;2.10;1.53;;;;;;;23.55;100.00;96228.31;4971456;28;102638;-64
2023/07/31 10:12:57;;;;;;;1.50;1.40;;;;;;;23.01;100.00;96215.13;4969344;28;104161;-64
2023/07/31 10:15:26;;;;;;;2.90;1.63;;;;;;;23.17;100.00;96226.97;4971214;28;101872;-64
2023/07/31 10:17:55;;;;;;;2.13;1.53;;;;;;;22.92;100.00;96222.53;5003158;28;104059;-64
2023/07/31 10:20:22;;;;;;;3.80;1.43;;;;;;;23.26;100.00;96214.91;4969098;28;105146;-64
2023/07/31 10:22:50;;;;;;;1.80;1.70;;;;;;;23.62;100.00;96206.88;4973262;28;102008;-64
2023/07/31 10:25:17;;;;;;;1.73;1.63;;;;;;;23.48;98.49;96209.09;4970471;28;102794;-64
2023/07/31 10:27:44;;;;;;;1.60;1.40;;;;;;;23.69;100.00;96203.56;4969803;28;101884;-64
2023/07/31 10:30:13;;;;;;;1.70;1.50;;;;;;;24.02;99.10;96204.31;4969698;28;105508;-64
2023/07/31 10:32:42;;;;;;;3.07;1.60;;;;;;;24.08;91.53;96202.97;4970344;28;103136;-64
2023/07/31 10:35:10;;;;;;;2.50;1.50;;;;;;;24.73;93.24;96205.41;4971013;28;101874;-64
2023/07/31 10:37:39;;;;;;;2.50;1.40;;;;;;;24.79;99.97;96195.84;4970689;28;102844;-64
2023/07/31 10:40:10;;;;;;;3.57;1.50;;;;;;;24.48;85.95;96192.94;4970303;28;103338;-64
2023/07/31 10:42:39;;;;;;;2.17;1.50;;;;;;;24.04;95.02;96188.47;4969734;28;101838;-64
2023/07/31 10:45:09;;;;;;;1.60;1.50;;;;;;;23.56;96.38;96186.50;4972553;28;105525;-64
2023/07/31 10:47:44;;;;;;;1.50;1.40;;;;;;;23.96;97.16;96187.47;5002730;28;101982;-64
2023/07/31 10:50:18;;;;;;;1.93;1.40;;;;;;;24.33;97.39;96180.06;4969760;28;104009;-64
2023/07/31 10:52:49;;;;;;;1.73;1.60;;;;;;;24.92;90.64;96176.44;4967938;28;105015;-64
2023/07/31 10:55:23;;;;;;;1.67;1.30;;;;;;;24.51;88.15;96179.47;4969430;28;102113;-64
2023/07/31 10:57:50;;;;;;;2.53;1.53;;;;;;;24.76;77.95;96181.00;4969247;28;105621;-64
2023/07/31 11:00:22;;;;;;;2.60;1.77;;;;;;;25.48;73.66;96177.97;4969991;28;102789;-64
2023/07/31 11:03:08;;;;;;;1.77;1.60;;;;;;;25.52;75.87;96170.69;4970616;28;101861;-64
2023/07/31 11:05:47;;;;;;;2.17;1.50;;;;;;;25.80;66.73;96165.16;4970664;28;102816;-64
2023/07/31 11:08:16;;;;;;;1.53;1.37;;;;;;;26.27;76.16;96157.75;4973071;28;101924;-64
2023/07/31 11:10:43;;;;;;;2.90;1.60;;;;;;;26.80;65.02;96159.72;4970554;28;101736;-64
2023/07/31 11:13:10;;;;;;;3.23;1.67;;;;;;;27.30;67.96;96154.84;4968550;28;105639;-64
2023/07/31 11:15:37;;;;;;;1.63;1.50;;;;;;;26.73;56.95;96162.28;4969096;28;101979;-64
2023/07/31 11:18:07;;;;;;;2.43;1.43;;;;;;;26.05;66.20;96153.72;4970655;28;102999;-64
2023/07/31 11:20:35;;;;;;;3.63;1.60;;;;;;;25.98;60.97;96161.75;4969565;28;103225;-64
2023/07/31 11:23:03;;;;;;;2.33;1.50;;;;;;;25.46;65.26;96146.78;4968983;28;102032;-64